Horse Ridge (US 20 MP 21)
Elevation:
4160 feet
Time Temp Dew Point Relative Humidity Wind Direction Wind Speed (Avg.) Wind Speed (Gusts) Station Quality
22 Aug 4:00 am 46F 46F 99% SW 3 mph 4 mph OK
22 Aug 3:40 am 47F 46F 99% SE 1 mph 2 mph OK
22 Aug 3:30 am 47F 47F 99% SE 1 mph 4 mph OK
22 Aug 3:11 am 48F 48F 100% SE 1 mph 2 mph OK
22 Aug 3:01 am 48F 47F 99% SE 3 mph 4 mph OK
22 Aug 2:40 am 48F 47F 99% SE 3 mph 4 mph OK
22 Aug 1:30 am 47F 47F 99% N 3 mph 3 mph OK
22 Aug 1:10 am 49F 49F 99% SE 1 mph 2 mph OK
22 Aug 1:00 am 50F 50F 99% SE 1 mph 1 mph OK
22 Aug 12:40 am 51F 50F 99% N 1 mph 2 mph OK
22 Aug 12:30 am 52F 51F 99% SW 1 mph 1 mph OK
22 Aug 12:10 am 52F 52F 99% SE 1 mph 1 mph OK
22 Aug 12:00 am 53F 52F 99% S 1 mph 2 mph OK
21 Aug 11:40 pm 52F 52F 99% S 3 mph 3 mph OK
21 Aug 11:30 pm 52F 52F 99% SE 1 mph 3 mph OK
21 Aug 11:10 pm 53F 52F 99% E 1 mph 2 mph OK
21 Aug 11:00 pm 52F 52F 98% NE 1 mph 2 mph OK
21 Aug 10:40 pm 51F 50F 97% SW 2 mph 4 mph OK
21 Aug 10:30 pm 53F 52F 96% NW 2 mph 2 mph OK
21 Aug 10:10 pm 55F 54F 96% N 2 mph 2 mph OK
21 Aug 10:00 pm 55F 54F 96% N 2 mph 2 mph OK
21 Aug 9:40 pm 56F 54F 94% N 1 mph 2 mph OK
21 Aug 9:30 pm 56F 54F 93% SW 1 mph 2 mph OK
21 Aug 9:10 pm 57F 54F 91% W 1 mph 1 mph OK
21 Aug 9:00 pm 57F 55F 92% SW 1 mph 1 mph OK
21 Aug 8:40 pm 57F 54F 91% N 2 mph 3 mph OK
21 Aug 8:30 pm 57F 55F 92% N 2 mph 3 mph OK
21 Aug 8:10 pm 57F 54F 90% N 3 mph 5 mph OK
21 Aug 8:00 pm 57F 54F 89% N 4 mph 6 mph OK
21 Aug 7:40 pm 58F 54F 88% N 5 mph 6 mph OK
21 Aug 7:30 pm 58F 55F 89% NW 3 mph 4 mph OK
21 Aug 7:10 pm 58F 53F 83% W 2 mph 3 mph OK
21 Aug 7:00 pm 59F 53F 80% W 1 mph 3 mph OK
21 Aug 6:40 pm 59F 54F 82% S 3 mph 4 mph OK
21 Aug 6:30 pm 59F 53F 80% W 2 mph 4 mph OK
21 Aug 6:10 pm 58F 56F 93% SE 2 mph 3 mph OK
21 Aug 6:00 pm 56F 54F 93% E 3 mph 4 mph OK
21 Aug 5:40 pm 57F 54F 92% S 1 mph 6 mph OK
21 Aug 5:30 pm 57F 55F 94% SE 6 mph 7 mph OK
21 Aug 5:10 pm 57F 54F 90% SE 4 mph 5 mph OK
21 Aug 5:00 pm 57F 54F 91% E 1 mph 4 mph OK
21 Aug 4:40 pm 56F 54F 92% NE 6 mph 8 mph OK
21 Aug 4:30 pm 56F 54F 93% N 6 mph 9 mph OK
21 Aug 4:10 pm 56F 54F 91% SW 6 mph 3 mph OK
21 Aug 4:00 pm 56F 53F 89% NW 3 mph 4 mph OK
21 Aug 3:40 pm 56F 53F 90% NW 3 mph 4 mph OK
21 Aug 3:30 pm 56F 54F 92% NW 3 mph 9 mph OK
21 Aug 3:10 pm 56F 54F 91% W 8 mph 14 mph OK
21 Aug 3:00 pm 58F 55F 92% W 6 mph 13 mph OK
21 Aug 2:40 pm 57F 55F 93% NW 2 mph 4 mph OK
21 Aug 2:30 pm 57F 55F 92% N 1 mph 4 mph OK
21 Aug 2:10 pm 57F 53F 87% SW 10 mph 12 mph OK
21 Aug 2:00 pm 58F 54F 86% SW 6 mph 8 mph OK
21 Aug 1:40 pm 58F 53F 82% NW 2 mph 9 mph OK
21 Aug 1:30 pm 59F 51F 75% W 9 mph 18 mph OK
21 Aug 1:10 pm 69F 44F 41% W 12 mph 22 mph OK
21 Aug 1:00 pm 71F 44F 38% NW 12 mph 19 mph OK
21 Aug 12:40 pm 74F 42F 32% NW 10 mph 17 mph OK
21 Aug 12:30 pm 74F 43F 33% W 10 mph 21 mph OK
21 Aug 12:10 pm 75F 41F 30% W 8 mph 21 mph OK
21 Aug 12:00 pm 77F 40F 27% NW 10 mph 19 mph OK
21 Aug 11:40 am 75F 41F 30% NW 6 mph 17 mph OK
21 Aug 11:30 am 75F 43F 32% W 12 mph 22 mph OK
21 Aug 11:10 am 77F 39F 26% W 4 mph 16 mph OK
21 Aug 11:00 am 77F 35F 22% N 6 mph 12 mph OK
21 Aug 10:40 am 75F 35F 24% S 4 mph 8 mph OK
21 Aug 10:30 am 74F 36F 25% SW 3 mph 7 mph OK
21 Aug 10:10 am 73F 37F 27% NW 1 mph 3 mph OK
21 Aug 10:00 am 73F 38F 28% NE 1 mph 4 mph OK
21 Aug 9:40 am 73F 45F 37% SE 3 mph 6 mph OK
21 Aug 9:30 am 71F 46F 41% SE 2 mph 4 mph OK
21 Aug 9:10 am 66F 47F 50% NW 1 mph 4 mph OK
21 Aug 9:00 am 66F 47F 51% E 1 mph 4 mph OK
21 Aug 8:40 am 62F 46F 57% SE 2 mph 6 mph OK
21 Aug 8:30 am 60F 46F 62% SE 4 mph 4 mph OK
21 Aug 8:10 am 56F 46F 69% E 4 mph 5 mph OK
21 Aug 8:00 am 56F 45F 69% SE 3 mph 5 mph OK
21 Aug 7:40 am 52F 43F 73% E 2 mph 3 mph OK
21 Aug 7:30 am 50F 43F 77% S 1 mph 3 mph OK
21 Aug 7:10 am 46F 41F 83% W 1 mph 2 mph OK
21 Aug 7:00 am 43F 40F 89% SE 3 mph 4 mph OK
21 Aug 6:40 am 40F 38F 91% SE 3 mph 1 mph OK
21 Aug 6:30 am 40F 38F 92% S 3 mph 4 mph OK
21 Aug 6:10 am 42F 38F 87% SE 2 mph 2 mph OK
21 Aug 6:00 am 42F 39F 87% SE 1 mph 2 mph OK
21 Aug 5:40 am 42F 39F 88% S 1 mph 1 mph OK
21 Aug 5:30 am 42F 39F 88% S 1 mph 1 mph OK
21 Aug 5:10 am 44F 40F 88% S 2 mph 3 mph OK
21 Aug 5:00 am 42F 39F 87% E 2 mph 3 mph OK
21 Aug 4:40 am 46F 43F 87% E 2 mph 4 mph OK
21 Aug 4:30 am 44F 41F 87% SE 2 mph 3 mph OK
21 Aug 4:10 am 45F 40F 83% SE 2 mph 3 mph OK